Time;durP1;ratioP1;P1;durP2;ratioP2;P2;SDS_P1;SDS_P2;PMS_P1;PMS_P2;Temp;Humidity;BMP_temperature;BMP_pressure;BME280_temperature;BME280_humidity;BME280_pressure;Samples;Min_cycle;Max_cycle;Signal;HPM_P1;HPM_P2
2021/07/22 00:01:47;;;;;;;6.85;4.55;;;;;;;18.38;nan;101005.84;4976468;28;20045;-86
2021/07/22 00:04:12;;;;;;;6.97;4.45;;;;;;;18.33;nan;101013.63;4974852;28;20038;-86
2021/07/22 00:06:37;;;;;;;6.32;4.55;;;;;;;18.28;nan;101007.16;4977383;28;20030;-86
2021/07/22 00:09:03;;;;;;;5.97;4.43;;;;;;;18.24;nan;101006.75;4994955;28;20555;-86
2021/07/22 00:11:28;;;;;;;7.63;4.90;;;;;;;18.19;nan;101004.63;4976847;28;20057;-86
2021/07/22 00:13:54;;;;;;;8.02;5.22;;;;;;;18.27;nan;101009.03;4992493;28;20034;-86
2021/07/22 00:16:19;;;;;;;7.35;5.35;;;;;;;18.32;nan;101013.81;4972152;28;20035;-86
2021/07/22 00:18:44;;;;;;;7.53;4.97;;;;;;;18.29;nan;101012.34;4976152;28;20035;-86
2021/07/22 00:21:10;;;;;;;7.72;4.65;;;;;;;18.22;nan;101008.78;4980943;28;20054;-86
2021/07/22 00:23:35;;;;;;;7.47;5.27;;;;;;;18.17;nan;101006.66;4983469;28;20039;-86
2021/07/22 00:26:04;;;;;;;7.15;4.80;;;;;;;18.13;nan;101007.22;4987206;28;20505;-86
2021/07/22 00:28:30;;;;;;;6.28;4.75;;;;;;;18.15;nan;101005.19;4992716;28;20036;-86
2021/07/22 00:30:56;;;;;;;7.75;5.03;;;;;;;18.11;nan;101002.06;4977412;28;20030;-85
2021/07/22 00:33:21;;;;;;;7.10;5.25;;;;;;;18.10;nan;100999.59;4972125;28;20469;-86
2021/07/22 00:35:47;;;;;;;6.85;4.85;;;;;;;18.12;nan;101009.09;4990386;28;20287;-86
2021/07/22 00:38:12;;;;;;;7.20;4.38;;;;;;;18.09;nan;101000.59;4976363;28;20042;-86
2021/07/22 00:40:45;;;;;;;7.10;4.80;;;;;;;18.08;nan;101002.44;4972277;28;20042;-86
2021/07/22 00:43:10;;;;;;;6.95;4.25;;;;;;;18.06;nan;100995.63;4976546;28;20431;-86
2021/07/22 00:45:35;;;;;;;6.57;4.15;;;;;;;18.02;nan;100993.34;4975034;28;20080;-86
2021/07/22 00:48:01;;;;;;;8.52;5.20;;;;;;;18.00;nan;100987.34;4963491;28;20031;-85
2021/07/22 00:50:28;;;;;;;6.07;4.63;;;;;;;18.02;nan;100989.84;4975914;28;20061;-86
2021/07/22 00:52:53;;;;;;;7.75;4.40;;;;;;;18.03;nan;100992.31;4971789;28;20119;-86
2021/07/22 00:55:22;;;;;;;6.22;4.43;;;;;;;18.01;nan;100991.66;4994836;28;20054;-86
2021/07/22 00:57:48;;;;;;;6.18;4.25;;;;;;;17.97;nan;100987.72;4991861;28;20053;-86
2021/07/22 01:00:14;;;;;;;6.65;4.97;;;;;;;18.00;nan;100986.50;4985739;28;20393;-86
2021/07/22 01:02:40;;;;;;;5.60;4.50;;;;;;;17.97;nan;100981.53;4988724;28;20385;-86
2021/07/22 01:05:06;;;;;;;6.03;4.50;;;;;;;17.90;nan;100985.97;4976823;28;20037;-86
2021/07/22 01:07:32;;;;;;;5.65;3.95;;;;;;;17.89;nan;100981.66;4991683;28;20399;-86
2021/07/22 01:09:58;;;;;;;6.53;4.45;;;;;;;17.92;nan;100975.91;4994679;28;20061;-86
2021/07/22 01:12:23;;;;;;;5.78;4.45;;;;;;;17.92;nan;100983.94;4969622;28;20038;-86
2021/07/22 01:14:48;;;;;;;8.55;4.80;;;;;;;17.93;nan;100983.75;4976708;28;20030;-86
2021/07/22 01:17:38;;;;;;;6.70;4.50;;;;;;;18.03;nan;100983.44;4968088;28;20034;-86
2021/07/22 01:20:11;;;;;;;8.73;5.10;;;;;;;18.11;nan;100974.47;4977789;28;20050;-86
2021/07/22 01:22:37;;;;;;;9.13;4.63;;;;;;;18.06;nan;100974.22;4977350;28;20423;-86
2021/07/22 01:25:03;;;;;;;5.72;4.07;;;;;;;18.06;nan;100972.38;4973635;28;20031;-86
2021/07/22 01:27:28;;;;;;;6.53;4.43;;;;;;;18.10;nan;100975.50;4989167;28;20042;-86
2021/07/22 01:29:54;;;;;;;7.28;5.03;;;;;;;18.17;nan;100973.72;4976582;28;20042;-86
2021/07/22 01:32:19;;;;;;;5.88;4.72;;;;;;;18.11;nan;100971.78;4978000;28;20282;-86
2021/07/22 01:34:44;;;;;;;7.15;4.80;;;;;;;18.15;nan;100965.88;4980653;28;20061;-86
2021/07/22 01:37:10;;;;;;;5.85;4.75;;;;;;;18.17;nan;100966.50;4989121;28;20102;-86
2021/07/22 01:39:35;;;;;;;6.32;4.63;;;;;;;18.19;nan;100971.69;4973863;28;20030;-86
2021/07/22 01:42:00;;;;;;;7.07;4.75;;;;;;;18.20;nan;100968.78;4975131;28;20488;-86
2021/07/22 01:44:27;;;;;;;7.75;4.80;;;;;;;18.15;nan;100965.88;4996803;28;20435;-86
2021/07/22 01:46:53;;;;;;;5.97;4.43;;;;;;;18.03;nan;100957.53;4992010;28;20076;-86
2021/07/22 01:49:18;;;;;;;6.95;4.65;;;;;;;17.99;nan;100961.59;4969511;28;20046;-86
2021/07/22 01:51:44;;;;;;;6.40;4.90;;;;;;;17.98;nan;100964.47;4972500;28;20458;-86
2021/07/22 01:54:09;;;;;;;6.40;4.70;;;;;;;17.90;nan;100957.41;4962495;28;20034;-86
2021/07/22 01:56:35;;;;;;;6.60;4.35;;;;;;;17.89;nan;100955.72;4975693;28;20034;-85
2021/07/22 01:59:00;;;;;;;7.72;4.25;;;;;;;17.88;nan;100964.78;4973006;28;20048;-86
2021/07/22 02:01:26;;;;;;;6.25;4.18;;;;;;;17.86;nan;100961.47;4967464;28;20519;-86
2021/07/22 02:03:51;;;;;;;6.38;4.45;;;;;;;17.83;nan;100961.84;4991075;28;20046;-86
2021/07/22 02:06:16;;;;;;;10.23;4.72;;;;;;;17.75;nan;100952.03;4961364;28;20027;-85
2021/07/22 02:08:41;;;;;;;6.40;4.75;;;;;;;17.71;nan;100949.91;4972129;28;20403;-85
2021/07/22 02:11:07;;;;;;;7.60;5.00;;;;;;;17.75;nan;100954.72;4970925;28;20093;-85
2021/07/22 02:13:32;;;;;;;6.80;4.88;;;;;;;17.73;nan;100959.44;4989292;28;20034;-86
2021/07/22 02:15:58;;;;;;;5.88;4.35;;;;;;;17.69;nan;100960.81;4976114;28;20035;-86
2021/07/22 02:18:23;;;;;;;6.38;4.43;;;;;;;17.67;nan;100954.84;4987454;28;20552;-86
2021/07/22 02:20:49;;;;;;;7.13;5.07;;;;;;;17.72;nan;100960.44;4990769;28;20058;-86
2021/07/22 02:23:15;;;;;;;6.50;4.63;;;;;;;17.66;nan;100949.66;4986041;28;20237;-85
2021/07/22 02:25:40;;;;;;;6.75;4.45;;;;;;;17.62;nan;100958.06;4974099;28;20045;-86
2021/07/22 02:28:05;;;;;;;6.63;4.70;;;;;;;17.64;nan;100955.22;4977614;28;20105;-86
2021/07/22 02:30:31;;;;;;;6.20;4.57;;;;;;;17.61;nan;100952.91;4987333;28;20041;-86
2021/07/22 02:32:56;;;;;;;8.15;4.97;;;;;;;17.70;nan;100956.31;4970121;28;20520;-86
2021/07/22 02:35:22;;;;;;;7.40;4.70;;;;;;;17.61;nan;100964.44;4978067;28;20038;-86
2021/07/22 02:37:47;;;;;;;5.90;4.68;;;;;;;17.61;nan;100964.44;4992076;28;20121;-86
2021/07/22 02:40:13;;;;;;;6.82;4.57;;;;;;;17.69;nan;100957.31;4971580;28;20062;-86
2021/07/22 02:42:39;;;;;;;7.25;4.75;;;;;;;17.63;nan;100973.09;4975007;28;20113;-86
2021/07/22 02:45:05;;;;;;;5.70;4.00;;;;;;;17.57;nan;100967.69;4981713;28;20054;-86
2021/07/22 02:47:30;;;;;;;6.07;4.53;;;;;;;17.46;nan;100974.31;4997447;28;20041;-86
2021/07/22 02:49:56;;;;;;;4.32;3.40;;;;;;;17.41;nan;100974.03;4966553;28;20031;-86
2021/07/22 02:52:21;;;;;;;4.72;4.00;;;;;;;17.34;nan;100975.81;4975450;28;20084;-86
2021/07/22 02:54:46;;;;;;;4.65;3.58;;;;;;;17.26;nan;100976.72;4997453;28;20061;-86
2021/07/22 02:57:11;;;;;;;5.75;4.30;;;;;;;17.22;nan;100971.94;4980485;28;20516;-86
2021/07/22 02:59:37;;;;;;;5.78;4.03;;;;;;;17.27;nan;100980.22;4968900;28;20038;-86
2021/07/22 03:02:02;;;;;;;6.97;4.70;;;;;;;17.30;nan;100980.69;4976127;28;20369;-86
2021/07/22 03:04:29;;;;;;;7.03;4.93;;;;;;;17.28;nan;100980.06;4971256;28;20038;-85
2021/07/22 03:06:54;;;;;;;6.82;4.85;;;;;;;17.32;nan;100975.97;4979353;28;20050;-86
2021/07/22 03:09:20;;;;;;;8.77;4.80;;;;;;;17.35;nan;100977.44;4996364;28;20045;-86
2021/07/22 03:11:45;;;;;;;5.72;4.18;;;;;;;17.24;nan;100983.28;4989212;28;20480;-86
2021/07/22 03:14:10;;;;;;;5.20;3.72;;;;;;;17.17;nan;100980.50;4976271;28;20037;-86
2021/07/22 03:16:35;;;;;;;5.60;3.90;;;;;;;17.12;nan;100985.56;4972371;28;20113;-86
2021/07/22 03:19:01;;;;;;;5.93;4.10;;;;;;;17.00;nan;100984.38;4976355;28;20066;-86
2021/07/22 03:21:26;;;;;;;5.97;3.72;;;;;;;16.95;nan;100995.59;4973560;28;20505;-86
2021/07/22 03:23:51;;;;;;;5.68;4.18;;;;;;;16.88;nan;100989.34;4970723;28;20069;-86
2021/07/22 03:26:18;;;;;;;5.43;3.90;;;;;;;16.80;nan;100987.53;4985551;28;20034;-86
2021/07/22 03:28:44;;;;;;;5.22;3.63;;;;;;;16.72;nan;100985.75;4996709;28;20408;-86
2021/07/22 03:31:10;;;;;;;6.30;4.25;;;;;;;16.62;nan;100982.50;4995005;28;20030;-86
2021/07/22 03:33:35;;;;;;;6.43;4.40;;;;;;;16.58;nan;100993.72;4967249;28;20105;-86
2021/07/22 03:36:02;;;;;;;4.95;3.60;;;;;;;16.54;nan;100991.44;4994520;28;20382;-86
2021/07/22 03:38:28;;;;;;;5.10;4.18;;;;;;;16.45;nan;100991.69;4978682;28;20382;-86
2021/07/22 03:40:53;;;;;;;7.20;4.70;;;;;;;16.34;nan;100993.75;4978341;28;20073;-86
2021/07/22 03:43:18;;;;;;;6.18;4.40;;;;;;;16.26;nan;100991.13;4975481;28;20303;-86
2021/07/22 03:45:43;;;;;;;6.50;4.38;;;;;;;16.23;nan;100988.84;4973995;28;20049;-86
2021/07/22 03:48:09;;;;;;;7.07;4.50;;;;;;;16.15;nan;100994.22;4973200;28;20293;-86
2021/07/22 03:50:34;;;;;;;4.72;3.67;;;;;;;16.07;nan;100991.59;4989925;28;20042;-86
2021/07/22 03:52:59;;;;;;;5.53;4.13;;;;;;;16.04;nan;100994.59;4996401;28;20046;-86
2021/07/22 03:55:26;;;;;;;6.30;4.50;;;;;;;16.00;nan;101001.31;4965841;28;20050;-86
2021/07/22 03:57:51;;;;;;;5.78;4.40;;;;;;;15.93;nan;101001.19;4978432;28;20048;-86
2021/07/22 04:00:17;;;;;;;6.13;4.40;;;;;;;15.87;nan;101000.06;4981570;28;20051;-86
2021/07/22 04:02:42;;;;;;;5.43;3.92;;;;;;;15.86;nan;101005.56;4978148;28;20038;-86
2021/07/22 04:05:09;;;;;;;6.70;4.80;;;;;;;15.79;nan;101008.09;4974355;28;20030;-86
2021/07/22 04:07:34;;;;;;;6.75;4.72;;;;;;;15.73;nan;101006.13;4989154;28;20138;-86
2021/07/22 04:09:59;;;;;;;8.20;5.53;;;;;;;15.70;nan;101007.28;4978323;28;20062;-86
2021/07/22 04:12:27;;;;;;;7.43;5.55;;;;;;;15.72;nan;101004.44;4975188;28;20038;-86
2021/07/22 04:14:52;;;;;;;5.60;4.32;;;;;;;15.67;nan;101009.44;4999876;28;20041;-86
2021/07/22 04:17:17;;;;;;;6.88;5.00;;;;;;;15.71;nan;101008.97;4968216;28;20043;-86
2021/07/22 04:19:43;;;;;;;7.93;4.95;;;;;;;15.69;nan;101010.94;4973222;28;20030;-86
2021/07/22 04:22:08;;;;;;;6.63;4.33;;;;;;;15.68;nan;101009.28;4968333;28;20034;-86
2021/07/22 04:24:34;;;;;;;8.02;5.13;;;;;;;15.66;nan;101013.94;4976102;28;20269;-86
2021/07/22 04:26:59;;;;;;;5.13;3.92;;;;;;;15.67;nan;101017.44;4966861;28;20035;-86
2021/07/22 04:29:24;;;;;;;6.93;5.25;;;;;;;15.68;nan;101019.09;4976874;28;20145;-86
2021/07/22 04:31:50;;;;;;;8.10;5.30;;;;;;;15.68;nan;101013.75;4978756;28;20515;-86
2021/07/22 04:34:15;;;;;;;8.05;5.28;;;;;;;15.65;nan;101014.94;4968660;28;20107;-86
2021/07/22 04:36:40;;;;;;;8.02;5.10;;;;;;;15.72;nan;101009.78;4991410;28;20070;-86
2021/07/22 04:39:05;;;;;;;5.97;4.28;;;;;;;15.76;nan;101013.78;4983318;28;20085;-86
2021/07/22 04:41:31;;;;;;;5.45;4.20;;;;;;;15.85;nan;101017.22;4972946;28;20026;-86
2021/07/22 04:43:56;;;;;;;5.95;4.13;;;;;;;15.96;nan;101016.81;4969772;28;20488;-86
2021/07/22 04:46:22;;;;;;;7.32;5.35;;;;;;;16.12;nan;101018.59;4984806;28;20042;-86
2021/07/22 04:48:47;;;;;;;6.97;5.00;;;;;;;16.27;nan;101023.97;4972335;28;20038;-86
2021/07/22 04:51:13;;;;;;;7.32;4.95;;;;;;;16.29;nan;101020.13;4976202;28;20069;-86
2021/07/22 04:53:39;;;;;;;7.70;4.63;;;;;;;16.29;nan;101017.47;4966856;28;20069;-86
2021/07/22 04:56:05;;;;;;;7.53;4.93;;;;;;;16.33;nan;101017.94;4990460;28;20434;-86
2021/07/22 04:58:30;;;;;;;5.85;4.40;;;;;;;16.32;nan;101013.59;4994763;28;20142;-85
2021/07/22 05:00:55;;;;;;;6.07;4.80;;;;;;;16.35;nan;101023.91;4970302;28;20500;-86
2021/07/22 05:03:21;;;;;;;6.75;4.68;;;;;;;16.40;nan;101023.38;4964342;28;20149;-86
2021/07/22 05:05:46;;;;;;;6.63;4.40;;;;;;;16.40;nan;101018.03;4962156;28;20078;-86
2021/07/22 05:08:11;;;;;;;5.93;4.35;;;;;;;16.42;nan;101021.38;4961975;28;20045;-86
2021/07/22 05:10:37;;;;;;;5.53;4.07;;;;;;;16.43;nan;101018.53;4965415;28;20031;-86
2021/07/22 05:13:03;;;;;;;7.18;4.63;;;;;;;16.47;nan;101014.50;4970612;28;20046;-86
2021/07/22 05:15:29;;;;;;;6.78;4.80;;;;;;;16.67;nan;101022.84;4987762;28;20363;-86
2021/07/22 05:17:54;;;;;;;7.85;5.25;;;;;;;16.84;nan;101017.41;4991474;28;20069;-86
2021/07/22 05:20:20;;;;;;;8.48;5.50;;;;;;;16.90;nan;101020.19;4985483;28;20038;-86
2021/07/22 05:22:46;;;;;;;6.57;4.90;;;;;;;17.00;nan;101017.25;4978705;28;20102;-86
2021/07/22 05:25:11;;;;;;;7.15;5.50;;;;;;;17.07;nan;101009.34;4996000;28;20050;-85
2021/07/22 05:27:37;;;;;;;7.32;4.97;;;;;;;17.11;nan;101011.47;4998228;28;20030;-85
2021/07/22 05:30:06;;;;;;;8.18;5.28;;;;;;;17.27;nan;101018.47;4973150;28;20392;-85
2021/07/22 05:32:31;;;;;;;5.63;4.15;;;;;;;17.28;nan;101016.63;4989523;28;20049;-85
2021/07/22 05:34:57;;;;;;;7.40;5.20;;;;;;;17.39;nan;101014.31;4971907;28;20524;-85
2021/07/22 05:37:22;;;;;;;6.55;5.03;;;;;;;17.44;nan;101015.63;4977750;28;20047;-85
2021/07/22 05:39:47;;;;;;;8.55;5.25;;;;;;;17.51;nan;101017.38;4985473;28;20046;-85
2021/07/22 05:42:13;;;;;;;8.15;5.07;;;;;;;17.58;nan;101017.47;4974055;28;20040;-85
2021/07/22 05:44:38;;;;;;;6.88;5.18;;;;;;;17.62;nan;101014.22;4979978;28;20062;-85
2021/07/22 05:47:05;;;;;;;8.85;5.65;;;;;;;17.90;nan;101021.59;4986477;28;20042;-85
2021/07/22 05:49:30;;;;;;;7.30;5.25;;;;;;;18.10;nan;101013.78;4986135;28;20038;-85
2021/07/22 05:51:56;;;;;;;9.23;5.75;;;;;;;18.46;nan;101016.41;4982310;28;20035;-85
2021/07/22 05:54:21;;;;;;;7.20;5.07;;;;;;;18.67;nan;101012.09;4976413;28;20116;-85
2021/07/22 05:56:47;;;;;;;7.70;5.05;;;;;;;19.01;nan;101029.28;4990398;28;20030;-85
2021/07/22 05:59:12;;;;;;;6.60;4.80;;;;;;;19.14;nan;101025.84;4998302;28;20042;-85
2021/07/22 06:01:38;;;;;;;7.25;5.03;;;;;;;19.44;nan;101021.09;4987355;28;20058;-86
2021/07/22 06:04:03;;;;;;;7.15;4.80;;;;;;;19.63;nan;101024.91;4981439;28;20076;-86
2021/07/22 06:06:28;;;;;;;5.05;4.38;;;;;;;19.79;nan;101029.97;4996985;28;20034;-85
2021/07/22 06:08:54;;;;;;;7.28;5.15;;;;;;;20.04;nan;101030.25;4970529;28;20033;-85
2021/07/22 06:11:19;;;;;;;6.90;5.13;;;;;;;20.57;nan;101025.03;4994789;28;20046;-85
2021/07/22 06:13:45;;;;;;;7.03;4.97;;;;;;;20.88;nan;101025.44;4983017;28;20038;-86
2021/07/22 06:16:13;;;;;;;8.10;4.88;;;;;;;21.20;nan;101032.63;4982487;28;20500;-86
2021/07/22 06:18:39;;;;;;;7.95;4.80;;;;;;;21.53;nan;101022.88;4994302;28;20122;-86
2021/07/22 06:21:05;;;;;;;6.20;4.32;;;;;;;21.96;nan;101030.34;4994374;28;20061;-86
2021/07/22 06:23:31;;;;;;;5.40;4.40;;;;;;;22.32;nan;101032.47;4969979;28;20039;-86
2021/07/22 06:26:00;;;;;;;5.47;4.20;;;;;;;22.64;nan;101027.88;4968149;28;20515;-86
2021/07/22 06:28:26;;;;;;;6.50;4.70;;;;;;;22.92;nan;101037.38;4985289;28;20434;-86
2021/07/22 06:30:52;;;;;;;7.40;4.80;;;;;;;23.08;nan;101036.84;4994196;28;20118;-86
2021/07/22 06:33:18;;;;;;;5.50;4.05;;;;;;;23.34;nan;101044.94;4991508;28;20030;-86
2021/07/22 06:35:44;;;;;;;9.55;5.00;;;;;;;23.38;nan;101044.22;5002218;28;20056;-85
2021/07/22 06:38:09;;;;;;;6.20;4.32;;;;;;;23.63;nan;101046.06;4976246;28;20042;-86
2021/07/22 06:40:38;;;;;;;6.07;4.50;;;;;;;23.73;nan;101040.94;4978327;28;20055;-85
2021/07/22 06:43:03;;;;;;;6.80;4.15;;;;;;;24.08;nan;101046.53;4995893;28;20472;-86
2021/07/22 06:45:29;;;;;;;6.75;4.60;;;;;;;24.43;nan;101050.41;4995728;28;20049;-85
2021/07/22 06:47:54;;;;;;;5.88;3.80;;;;;;;24.66;nan;101047.78;4991482;28;20038;-85
2021/07/22 06:50:19;;;;;;;6.05;4.30;;;;;;;24.98;nan;101042.91;4990279;28;20030;-85
2021/07/22 06:52:45;;;;;;;7.68;4.20;;;;;;;25.24;nan;101042.66;4986858;28;20043;-86
2021/07/22 06:55:10;;;;;;;5.95;4.15;;;;;;;25.52;nan;101042.75;4986444;28;20018;-86
2021/07/22 06:57:36;;;;;;;6.38;3.80;;;;;;;25.92;nan;101047.38;4969161;28;20508;-86
2021/07/22 07:00:03;;;;;;;4.68;3.47;;;;;;;26.26;nan;101044.75;4963787;28;20053;-86
2021/07/22 07:02:29;;;;;;;5.90;3.72;;;;;;;26.56;nan;101041.81;4985769;28;20066;-85
2021/07/22 07:04:54;;;;;;;6.60;4.20;;;;;;;26.47;nan;101038.63;4991389;28;20027;-86
2021/07/22 07:07:19;;;;;;;5.00;4.15;;;;;;;26.39;nan;101038.22;4978895;28;20034;-86
2021/07/22 07:09:45;;;;;;;6.78;4.35;;;;;;;26.65;nan;101036.81;4988492;28;20046;-86
2021/07/22 07:12:10;;;;;;;5.65;4.05;;;;;;;26.75;nan;101034.25;4965659;28;20038;-86
2021/07/22 07:14:36;;;;;;;5.10;3.38;;;;;;;27.06;nan;101032.81;4990408;28;20104;-86
2021/07/22 07:17:02;;;;;;;6.40;4.35;;;;;;;27.07;nan;101036.34;4967709;28;20033;-86
2021/07/22 07:19:28;;;;;;;6.45;4.30;;;;;;;26.90;nan;101031.75;4976200;28;20034;-86
2021/07/22 07:21:53;;;;;;;5.20;4.00;;;;;;;26.98;nan;101030.53;4975773;28;20284;-86
2021/07/22 07:24:18;;;;;;;5.85;4.13;;;;;;;27.32;nan;101036.75;4968060;28;20074;-86
2021/07/22 07:26:43;;;;;;;6.30;3.60;;;;;;;27.56;nan;101031.06;4971027;28;20589;-86
2021/07/22 07:29:09;;;;;;;5.93;4.40;;;;;;;27.81;nan;101037.88;4971745;28;20310;-86
2021/07/22 07:31:34;;;;;;;5.93;4.30;;;;;;;27.70;nan;101040.47;4973840;28;20289;-86
2021/07/22 07:33:59;;;;;;;6.45;3.85;;;;;;;27.87;nan;101034.19;4972664;28;20027;-86
2021/07/22 07:36:25;;;;;;;5.65;3.72;;;;;;;28.15;nan;101036.66;4979948;28;20035;-86
2021/07/22 07:38:50;;;;;;;5.22;3.55;;;;;;;28.23;nan;101034.56;4992822;28;20073;-86
2021/07/22 07:41:16;;;;;;;5.47;3.58;;;;;;;28.49;nan;101036.44;4989281;28;20035;-86
2021/07/22 07:43:42;;;;;;;6.00;3.85;;;;;;;28.37;nan;101033.06;4960825;28;20054;-86
2021/07/22 07:46:07;;;;;;;6.47;4.40;;;;;;;28.61;nan;101033.56;4964292;28;20106;-87
2021/07/22 07:48:33;;;;;;;5.10;3.83;;;;;;;28.58;nan;101025.91;4974072;28;20297;-86
2021/07/22 07:50:59;;;;;;;6.90;4.20;;;;;;;28.52;nan;101032.38;4995368;28;20030;-86
2021/07/22 07:53:24;;;;;;;4.50;3.45;;;;;;;28.75;nan;101026.59;4988153;28;20065;-86
2021/07/22 07:55:49;;;;;;;5.50;3.50;;;;;;;29.24;nan;101028.28;4983110;28;20027;-86
2021/07/22 07:58:15;;;;;;;5.15;3.67;;;;;;;29.41;nan;101034.38;4995888;28;20408;-86
2021/07/22 08:00:40;;;;;;;4.33;3.47;;;;;;;29.47;nan;101021.59;4970186;28;20551;-87
2021/07/22 08:03:14;;;;;;;5.55;3.70;;;;;;;29.72;nan;101022.78;4972194;28;20297;-86
2021/07/22 08:05:40;;;;;;;4.80;3.90;;;;;;;29.28;nan;101020.41;4969686;28;20061;-85
2021/07/22 08:08:05;;;;;;;5.93;3.67;;;;;;;29.35;nan;101018.25;4971865;28;20404;-86
2021/07/22 08:10:31;;;;;;;4.18;3.47;;;;;;;29.52;nan;101018.06;4958232;28;20489;-86
2021/07/22 08:12:56;;;;;;;5.85;3.80;;;;;;;29.79;nan;101023.34;4970167;28;20031;-86
2021/07/22 08:15:21;;;;;;;4.47;3.30;;;;;;;30.31;nan;101016.13;4993131;28;20522;-86
2021/07/22 08:17:46;;;;;;;5.22;3.78;;;;;;;30.37;nan;101018.56;4987067;28;20591;-86
2021/07/22 08:20:12;;;;;;;5.15;3.60;;;;;;;30.41;nan;101008.72;4962211;28;20035;-86
2021/07/22 08:22:38;;;;;;;5.90;4.10;;;;;;;30.51;nan;101005.22;4993388;28;20431;-86
2021/07/22 08:25:05;;;;;;;4.75;3.95;;;;;;;30.61;nan;101007.13;4972049;28;20030;-86
2021/07/22 08:27:32;;;;;;;4.47;3.47;;;;;;;30.52;nan;101012.28;4965822;28;20029;-86
2021/07/22 08:29:58;;;;;;;5.72;3.80;;;;;;;30.60;nan;101008.19;4978418;28;20041;-86
2021/07/22 08:32:25;;;;;;;5.50;4.20;;;;;;;30.71;nan;101009.81;4969129;28;20559;-86
2021/07/22 08:34:51;;;;;;;4.20;3.45;;;;;;;30.98;nan;100997.78;4976257;28;20523;-86
2021/07/22 08:37:16;;;;;;;5.25;3.85;;;;;;;31.25;nan;101000.16;4988844;28;20031;-86
2021/07/22 08:39:43;;;;;;;5.43;3.88;;;;;;;31.27;nan;101000.69;4974621;28;20038;-86
2021/07/22 08:42:11;;;;;;;5.15;3.70;;;;;;;31.47;nan;100997.91;4971138;28;20424;-86
2021/07/22 08:44:39;;;;;;;6.15;3.53;;;;;;;32.02;nan;100992.44;4961735;28;20035;-86
2021/07/22 08:47:05;;;;;;;4.80;3.90;;;;;;;32.34;nan;101002.84;4972532;28;20037;-86
2021/07/22 08:49:32;;;;;;;4.18;3.13;;;;;;;32.66;nan;101001.50;4991765;28;20045;-86
2021/07/22 08:51:59;;;;;;;5.32;3.65;;;;;;;32.88;nan;101003.75;4969807;28;20034;-86
2021/07/22 08:54:24;;;;;;;4.60;3.47;;;;;;;33.24;nan;101002.56;4969122;28;20065;-86
2021/07/22 08:56:51;;;;;;;4.82;3.60;;;;;;;33.32;nan;100996.41;4986372;28;20117;-87
2021/07/22 08:59:20;;;;;;;4.22;3.30;;;;;;;33.08;nan;100991.75;4964222;28;20168;-88
2021/07/22 09:01:46;;;;;;;5.65;4.22;;;;;;;32.90;nan;100992.50;4965156;28;21143;-87
2021/07/22 09:04:12;;;;;;;5.07;3.72;;;;;;;32.87;nan;100995.81;4983834;28;20219;-87
2021/07/22 09:06:37;;;;;;;6.20;4.20;;;;;;;32.94;nan;100993.53;4967176;28;20031;-87
2021/07/22 09:09:13;;;;;;;4.93;3.90;;;;;;;32.78;nan;100993.72;4957567;28;20031;-87
2021/07/22 09:12:02;;;;;;;7.00;4.35;;;;;;;33.02;nan;100992.09;4967113;28;20026;-87
2021/07/22 09:14:31;;;;;;;5.25;3.92;;;;;;;33.17;nan;100987.28;4962238;28;20042;-88
2021/07/22 09:16:57;;;;;;;4.35;3.50;;;;;;;33.14;nan;100989.81;4994149;28;20030;-87
2021/07/22 09:19:41;;;;;;;5.13;4.20;;;;;;;32.73;nan;100991.03;4976404;28;20042;-87
2021/07/22 09:22:08;;;;;;;5.28;3.63;;;;;;;32.15;nan;100985.47;4985667;28;20027;-88
2021/07/22 09:24:51;;;;;;;4.00;3.20;;;;;;;31.85;nan;100989.25;4960989;28;20051;-88
2021/07/22 09:27:34;;;;;;;4.50;3.60;;;;;;;31.76;nan;100988.19;4979288;28;20413;-88
2021/07/22 09:30:01;;;;;;;4.35;3.60;;;;;;;31.46;nan;100984.53;4986973;28;20309;-88
2021/07/22 09:32:33;;;;;;;4.40;3.67;;;;;;;31.46;nan;100984.53;4965337;28;20035;-88
2021/07/22 09:35:09;;;;;;;5.07;3.58;;;;;;;31.27;nan;100981.56;4974650;28;20039;-88
2021/07/22 09:37:56;;;;;;;4.53;3.30;;;;;;;31.38;nan;100972.22;4963227;28;20051;-89
2021/07/22 09:40:27;;;;;;;6.35;3.97;;;;;;;31.49;nan;100976.59;4974493;28;20046;-88
2021/07/22 09:42:55;;;;;;;4.15;3.38;;;;;;;31.13;nan;100975.06;4988790;28;20042;-89
2021/07/22 09:45:30;;;;;;;4.15;3.20;;;;;;;30.84;nan;100972.97;4972919;28;20500;-88
2021/07/22 09:48:06;;;;;;;6.28;4.13;;;;;;;30.33;nan;100975.75;4996876;28;20092;-88
2021/07/22 09:50:44;;;;;;;5.75;4.28;;;;;;;30.29;nan;100977.38;4980812;28;20034;-88
2021/07/22 09:53:14;;;;;;;4.60;3.67;;;;;;;30.39;nan;100985.53;4997509;28;20046;-88
2021/07/22 09:55:41;;;;;;;4.00;2.90;;;;;;;30.43;nan;100967.53;4964517;28;20579;-88
2021/07/22 09:58:09;;;;;;;5.05;3.75;;;;;;;30.42;nan;100974.91;4966655;28;20026;-88
2021/07/22 10:00:40;;;;;;;5.10;3.75;;;;;;;30.25;nan;100967.00;4993969;28;20069;-87
2021/07/22 10:03:09;;;;;;;4.05;3.20;;;;;;;30.40;nan;100968.09;4975080;28;20126;-89
2021/07/22 10:05:45;;;;;;;4.50;3.35;;;;;;;30.63;nan;100969.41;4993640;28;20030;-86
2021/07/22 10:08:16;;;;;;;4.32;3.58;;;;;;;30.35;nan;100959.91;4973996;28;20042;-88
2021/07/22 10:10:48;;;;;;;4.78;3.10;;;;;;;30.20;nan;100960.69;4980041;28;20216;-87
2021/07/22 10:13:16;;;;;;;3.75;3.30;;;;;;;30.15;nan;100955.22;4997496;28;20030;-88
2021/07/22 10:15:42;;;;;;;4.93;4.00;;;;;;;30.32;nan;100952.25;4979993;28;20046;-88
2021/07/22 10:18:07;;;;;;;5.85;4.28;;;;;;;29.95;nan;100948.69;4996899;28;20037;-88
2021/07/22 10:20:34;;;;;;;5.28;3.97;;;;;;;29.87;nan;100949.22;4971734;28;20056;-86
2021/07/22 10:23:00;;;;;;;4.35;3.50;;;;;;;29.89;nan;100954.41;4978790;28;20037;-86
2021/07/22 10:25:26;;;;;;;4.40;3.70;;;;;;;29.98;nan;100948.13;4977798;28;20023;-87
2021/07/22 10:27:53;;;;;;;5.93;4.10;;;;;;;29.90;nan;100939.69;4978271;28;20039;-86
2021/07/22 10:30:20;;;;;;;4.60;3.97;;;;;;;30.13;nan;100943.78;4978166;28;20042;-86
2021/07/22 10:32:48;;;;;;;4.15;3.45;;;;;;;30.20;nan;100941.59;4980199;28;20041;-85
2021/07/22 10:35:15;;;;;;;5.57;4.03;;;;;;;30.12;nan;100934.78;4989815;28;20038;-86
2021/07/22 10:38:10;;;;;;;5.65;4.07;;;;;;;30.02;nan;100937.50;4998446;28;20436;-87
2021/07/22 10:40:58;;;;;;;5.70;4.05;;;;;;;29.68;nan;100932.56;4979781;28;20026;-86
2021/07/22 10:43:29;;;;;;;6.47;4.38;;;;;;;29.30;nan;100923.72;4970704;28;20027;-85
2021/07/22 10:45:56;;;;;;;5.00;3.97;;;;;;;29.13;nan;100925.84;4977762;28;20489;-86
2021/07/22 10:48:28;;;;;;;5.63;4.47;;;;;;;28.98;nan;100921.09;4984246;28;20042;-87
2021/07/22 10:50:53;;;;;;;5.93;4.15;;;;;;;28.98;nan;100913.78;4994855;28;20034;-85
2021/07/22 10:53:34;;;;;;;5.22;4.20;;;;;;;29.06;nan;100917.88;4988637;28;20566;-86
2021/07/22 10:55:59;;;;;;;5.80;3.67;;;;;;;29.17;nan;100918.75;4977998;28;20039;-86
2021/07/22 10:58:24;;;;;;;6.55;4.45;;;;;;;29.51;nan;100908.25;4977239;28;20402;-86
2021/07/22 11:00:50;;;;;;;6.23;4.30;;;;;;;29.84;nan;100906.97;4992458;28;20111;-86
2021/07/22 11:06:03;;;;;;;6.45;5.00;;;;;;;29.34;nan;100900.31;4990038;28;20519;-85
2021/07/22 11:08:30;;;;;;;7.45;5.05;;;;;;;29.04;nan;100916.50;4996468;28;20475;-85
2021/07/22 11:11:02;;;;;;;4.38;3.97;;;;;;;28.98;nan;100915.66;4984212;28;20034;-86
2021/07/22 11:13:37;;;;;;;5.55;4.35;;;;;;;28.95;nan;100917.00;4967357;28;20035;-86
2021/07/22 11:16:04;;;;;;;9.63;4.90;;;;;;;29.26;nan;100905.44;4987419;28;20031;-88
2021/07/22 11:18:57;;;;;;;7.00;4.72;;;;;;;28.98;nan;100907.47;4988389;28;20097;-86
2021/07/22 11:21:29;;;;;;;5.75;4.30;;;;;;;28.83;nan;100910.94;4992550;28;20116;-86
2021/07/22 11:24:00;;;;;;;6.22;4.93;;;;;;;29.07;nan;100908.63;4990745;28;20113;-86
2021/07/22 11:26:27;;;;;;;5.80;4.40;;;;;;;28.76;nan;100911.19;4987959;28;20133;-86
2021/07/22 11:28:53;;;;;;;5.00;4.00;;;;;;;28.99;nan;100900.97;4971333;28;20524;-86
2021/07/22 11:31:19;;;;;;;5.28;4.20;;;;;;;28.99;nan;100904.50;4971592;28;20038;-87
2021/07/22 11:33:44;;;;;;;6.40;4.88;;;;;;;28.91;nan;100909.63;4991092;28;20034;-85
2021/07/22 11:36:12;;;;;;;5.95;4.22;;;;;;;28.93;nan;100908.28;4989746;28;20129;-86
2021/07/22 11:38:39;;;;;;;6.07;4.53;;;;;;;28.97;nan;100900.41;4961706;28;20039;-86
2021/07/22 11:41:12;;;;;;;5.22;4.38;;;;;;;29.00;nan;100900.69;4986563;28;20022;-86
2021/07/22 11:43:39;;;;;;;6.78;4.90;;;;;;;29.26;nan;100898.09;4987976;28;20159;-86